• Join FlightAware (Why Join?)
  • Login
  • US Flag 
Gobble Gobble! 
04:59PM EST


 

Airport Tracker/Info


-or-


 

Live Flight TrackerFlight Track Log ✈ FFT920 ✈ 21-Nov-2013 ✈ KRSW - KTTN

Flight Track Log - Related Links

Times and Time Zones

All times are in EST time to prevent confusion due to time zone crossing. See the FFT920 flight status page for this flight to view local times or setup timezone preferences in your user account.

Time Position Orientation Groundspeed Altitude Reporting Facility
EST Latitude Longitude Course Direction KTS MPH feet Rate Location/Type
10:43AM 26.6953 -81.7067 41° Northeast 294 338 6,700  Level Miami Center
10:44AM 26.7722 -81.7169 353° North 288 331 9,600 2,100 Climbing Miami Center
10:45AM 26.8617 -81.7275 354° North 301 346 11,000 660 Climbing Miami Center
10:46AM 27.0797 -81.5206 336° Northwest  Level Estimated
10:46AM 26.9678 -81.7389 355° North 349 402 11,000  Level Miami Center
10:47AM 27.1884 -81.4734 41° Northeast  Level Estimated
10:47AM 27.0733 -81.7619 349° North 382 440 13,300  Level Miami Center
10:48AM 27.1786 -81.7969 344° North 396 456 15,800 1,920 Climbing Miami Center
10:49AM 27.2900 -81.8319 344° North 396 456 17,200 1,500 Climbing Miami Center
10:50AM 27.3892 -81.8667 343° North 403 464 18,800 1,740 Climbing Miami Center
10:51AM 27.5003 -81.9067 342° North 409 471 20,700 2,520 Climbing Miami Center
10:52AM 27.6219 -81.9517 342° North 415 478 23,900 1,860 Climbing Miami Center
10:53AM 27.7333 -81.9872 344° North 415 478 24,500 1,200 Climbing Miami Center
10:54AM 27.8367 -81.9589 14° North 409 471 26,400 1,680 Climbing Miami Center
10:55AM 27.9336 -81.8717 38° Northeast 400 460 27,900 1,320 Climbing Miami Center
10:56AM 28.0325 -81.7867 37° Northeast 422 486 29,100 1,200 Climbing Miami Center
10:57AM 28.1336 -81.6969 38° Northeast 445 512 30,400 1,380 Climbing Miami Center
10:58AM 28.2447 -81.6194 32° Northeast 452 520 31,900 1,380 Climbing Miami Center
10:59AM 28.3703 -81.6083 North 437 503 33,200 1,260 Climbing Miami Center
11:00AM 28.5025 -81.6028 North 453 521 34,500 1,320 Climbing Jacksonville Center
11:01AM 28.6275 -81.5964 North 459 528 35,900 1,140 Climbing Jacksonville Center
11:02AM 28.7464 -81.5903 North 447 514 36,800 840 Climbing Jacksonville Center
11:03AM 28.8717 -81.5839 North 442 509 37,600 720 Climbing Jacksonville Center
11:04AM 28.9947 -81.5797 North 442 509 38,300 600 Climbing Jacksonville Center
11:05AM 29.1156 -81.5733 North 437 503 38,900 300 Climbing Jacksonville Center
11:06AM 29.2472 -81.5644 North 437 503 39,000  Climbing Jacksonville Center
11:07AM 29.3722 -81.5581 North 432 497 39,000  Level Jacksonville Center
11:08AM 29.4933 -81.5517 North 437 503 39,000  Level Jacksonville Center
11:09AM 29.6164 -81.5475 North 437 503 39,000  Level Jacksonville Center
11:10AM 29.7394 -81.5386 North 437 503 39,000  Level Jacksonville Center
11:11AM 29.8606 -81.5322 North 437 503 39,000  Level Jacksonville Center
11:12AM 29.9817 -81.5281 North 437 503 39,000 -60 Level Jacksonville Center
11:13AM 30.0900 -81.5194 North 442 509 38,900 -60 Descending Jacksonville Center
11:14AM 30.2131 -81.5128 North 442 509 38,900  Level Jacksonville Center
11:15AM 30.3342 -81.5064 North 436 502 38,900  Level Jacksonville Center
11:16AM 30.4553 -81.4972 North 436 502 39,000  Climbing Jacksonville Center
11:17AM 30.5742 -81.4883 North 436 502 39,000  Level Jacksonville Center
11:18AM 30.6950 -81.4792 North 436 502 39,000  Level Jacksonville Center
11:19AM 30.8181 -81.4678 North 436 502 39,000  Level Jacksonville Center
11:20AM 30.9369 -81.4589 North 441 507 39,000 -60 Level Jacksonville Center
11:21AM 31.0600 -81.4494 North 441 507 38,900  Descending Jacksonville Center
11:22AM 31.1917 -81.4403 North 435 501 39,000  Climbing Jacksonville Center
11:23AM 31.3103 -81.4214 North 435 501 39,000  Level Jacksonville Center
11:24AM 31.4289 -81.3903 13° North 436 502 39,000  Level Jacksonville Center
11:25AM 31.5392 -81.3617 12° North 441 507 39,000  Level Jacksonville Center
11:26AM 31.6725 -81.3278 12° North 441 507 39,000  Level Jacksonville Center
11:27AM 31.7914 -81.3086 North 434 499 39,000  Level Jacksonville Center
11:28AM 31.9017 -81.2944 North 434 499 39,000  Level Jacksonville Center
11:29AM 32.0183 -81.2778 North 434 499 39,000  Level Jacksonville Center
11:30AM 32.1394 -81.2658 North 434 499 39,000  Level Jacksonville Center
11:31AM 32.2583 -81.2514 North 429 494 39,000 -60 Level Jacksonville Center
11:32AM 32.3750 -81.2372 North 424 488 38,900  Descending Jacksonville Center
11:33AM 32.5064 -81.2225 North 430 495 39,000  Climbing Jacksonville Center
11:34AM 32.6250 -81.2078 North 423 487 39,000 -60 Level Jacksonville Center
11:35AM 32.7314 -81.1936 North 423 487 38,900  Descending Jacksonville Center
11:36AM 32.8522 -81.1789 North 423 487 39,000  Climbing Jacksonville Center
11:37AM 32.9708 -81.1569 North 423 487 39,000  Level Jacksonville Center
11:38AM 33.0825 -81.0853 28° Northeast 429 494 39,000  Level Jacksonville Center
11:39AM 33.1900 -81.0111 30° Northeast 435 501 39,000  Level Jacksonville Center
11:40AM 33.2994 -80.9342 30° Northeast 441 507 39,000 -60 Level Jacksonville Center
11:41AM 33.4089 -80.8622 29° Northeast 446 513 38,900 -60 Descending Jacksonville Center
11:42AM 33.5244 -80.7797 31° Northeast 441 507 38,900  Level Jacksonville Center
11:43AM 33.6317 -80.7075 29° Northeast 441 507 38,900  Level Jacksonville Center
11:44AM 33.7389 -80.6322 30° Northeast 441 507 39,000  Climbing Jacksonville Center
11:45AM 33.8439 -80.5572 31° Northeast 441 507 38,900  Descending Jacksonville Center
11:46AM 33.9511 -80.4817 30° Northeast 436 502 39,000  Climbing Jacksonville Center
11:47AM 34.0581 -80.4061 30° Northeast 441 507 39,000  Level Jacksonville Center
11:48AM 34.1631 -80.3328 30° Northeast 436 502 39,000  Level Jacksonville Center
11:49AM 34.2678 -80.2567 31° Northeast 441 507 39,000  Level Jacksonville Center
11:50AM 34.3728 -80.1833 30° Northeast 441 507 39,000 -60 Level Jacksonville Center
11:51AM 34.4794 -80.1069 31° Northeast 441 507 38,900  Descending Jacksonville Center
11:53AM 34.6975 -79.9519 30° Northeast 463 533 39,000  Climbing Washington Center
11:54AM 34.8044 -79.8742 31° Northeast 458 527 39,000  Level Washington Center
11:55AM 34.9114 -79.7989 30° Northeast 446 513 39,000  Level Washington Center
11:56AM 35.0164 -79.7206 31° Northeast 440 506 39,000  Level Washington Center
11:57AM 35.1192 -79.6472 30° Northeast 435 501 39,000  Level Washington Center
11:58AM 35.2261 -79.5686 31° Northeast 435 501 39,000  Level Washington Center
11:59AM 35.3308 -79.4925 31° Northeast 435 501 39,000  Level Washington Center
12:00PM 35.4378 -79.4161 30° Northeast 435 501 39,000  Level Washington Center
12:01PM 35.5339 -79.3442 31° Northeast 443 510 39,000  Level Washington Center
12:02PM 35.6428 -79.2675 30° Northeast 443 510 39,000  Level Washington Center
12:03PM 35.7494 -79.1878 31° Northeast 443 510 39,000  Level Washington Center
12:04PM 35.8561 -79.1108 30° Northeast 443 510 39,000  Level Washington Center
12:05PM 35.9628 -79.0281 32° Northeast 438 504 39,000  Level Washington Center
12:06PM 36.0736 -78.9481 30° Northeast 438 504 39,000  Level Washington Center
12:07PM 36.1781 -78.8653 33° Northeast 443 510 39,000  Level Washington Center
12:08PM 36.2867 -78.7872 30° Northeast 438 504 39,000  Level Washington Center
12:09PM 36.3953 -78.7039 32° Northeast 438 504 39,000  Level Washington Center
12:10PM 36.5017 -78.6228 31° Northeast 438 504 39,000  Level Washington Center
12:11PM 36.6100 -78.5417 31° Northeast 443 510 39,000  Level Washington Center
12:12PM 36.7228 -78.4528 32° Northeast 443 510 39,000  Level Washington Center
12:13PM 36.8311 -78.3686 32° Northeast 443 510 39,000  Level Washington Center
12:14PM 36.9394 -78.2867 31° Northeast 443 510 39,000  Level Washington Center
12:15PM 37.0350 -78.2094 33° Northeast 448 516 39,000  Level Washington Center
12:16PM 37.1517 -78.1219 31° Northeast 448 516 39,000  Level Washington Center
12:17PM 37.2578 -78.0394 32° Northeast 442 509 39,000 -240 Level Washington Center
12:18PM 37.3658 -77.9567 31° Northeast 442 509 38,600 -600 Descending Washington Center
12:19PM 37.4717 -77.8736 32° Northeast 442 509 37,900 -720 Descending Washington Center
12:20PM 37.5775 -77.7850 34° Northeast 447 514 37,200 -1,800 Descending Washington Center
12:21PM 37.6814 -77.6911 36° Northeast 447 514 34,400 -3,000 Descending Washington Center
12:22PM 37.7894 -77.5914 36° Northeast 463 533 31,400 -1,740 Descending Washington Center
12:23PM 37.8997 -77.4917 35° Northeast 474 545 31,000 -240 Descending Washington Center
12:24PM 38.0097 -77.3917 36° Northeast 484 557 31,000  Level Washington Center
12:25PM 38.1153 -77.2942 36° Northeast 479 551 31,000  Level Washington Center
12:26PM 38.2250 -77.1908 36° Northeast 484 557 31,000  Level Washington Center
12:27PM 38.3347 -77.0925 35° Northeast 484 557 31,000 -480 Level Washington Center
12:28PM 38.4425 -76.9914 36° Northeast 484 557 30,100 -1,440 Descending Washington Center
12:29PM 38.5497 -76.8925 36° Northeast 484 557 28,100 -2,520 Descending Washington Center
12:30PM 38.6550 -76.7906 37° Northeast 479 551 25,200 -2,700 Descending Washington Center
12:31PM 38.7253 -76.6481 58° Northeast 462 532 22,800 -2,280 Descending Washington Center
12:32PM 38.7578 -76.4889 75° East 448 516 20,600 -2,100 Descending Washington Center
12:33PM 38.7900 -76.3400 74° East 448 516 18,600 -1,740 Descending Washington Center
12:34PM 38.8181 -76.1964 76° East 428 493 17,200 -1,620 Descending Washington Center
12:35PM 38.8478 -76.0661 74° East 423 487 15,400 -1,200 Descending Washington Center
12:36PM 38.8753 -75.9250 76° East 408 470 14,900 -300 Descending Washington Center
12:37PM 38.9256 -75.8050 62° Northeast 380 437 14,900 -780 Level Washington Center
12:38PM 39.0111 -75.7253 36° Northeast 373 429 13,400 -840 Descending Washington Center
12:40PM 39.2500 -75.6667 11° North 354 407 12,200 -480 Descending Philadelphia TRACON
12:41PM 39.3167 -75.6167 30° Northeast 311 358 12,000 -120 Descending Philadelphia TRACON
12:42PM 39.4000 -75.5333 38° Northeast 320 368 12,000  Level Philadelphia TRACON
12:43PM 39.4500 -75.4500 52° Northeast 320 368 12,000  Level Philadelphia TRACON
12:44PM 39.5000 -75.3667 52° Northeast 320 368 12,000  Level Philadelphia TRACON
12:45PM 39.5667 -75.2500 53° Northeast 319 367 12,000  Level Philadelphia TRACON
12:46PM 39.6167 -75.1833 46° Northeast 319 367 12,000 -420 Level Philadelphia TRACON
12:47PM 39.6667 -75.1000 52° Northeast 315 362 11,300 -1,200 Descending Philadelphia TRACON
12:48PM 39.7333 -75.0000 49° Northeast 306 352 9,700 -1,500 Descending Philadelphia TRACON
12:49PM 39.7833 -74.9167 52° Northeast 301 346 8,200 -1,740 Descending Philadelphia TRACON
12:50PM 39.8333 -74.8500 46° Northeast 285 328 6,100 -1,740 Descending Philadelphia TRACON
12:51PM 39.9000 -74.8500 360° North 263 303 5,100 -600 Descending Philadelphia TRACON
12:52PM 39.9833 -74.8667 351° North 270 311 5,000 -480 Descending Philadelphia TRACON
12:53PM 40.0500 -74.8833 349° North 268 308 4,200 -540 Descending Philadelphia TRACON
12:54PM 40.1333 -74.8833 360° North 234 269 4,000 -720 Descending Philadelphia TRACON
12:55PM 40.1833 -74.9000 346° North 233 268 2,800 -1,320 Descending Philadelphia TRACON
12:56PM 40.2333 -74.8667 27° Northeast 186 214 1,600 -1,200 Descending Philadelphia TRACON
12:58PM 40.2667 -74.8000 21° North  Level FlightAware Approximate
01:05PM 40.2767 -74.8135 21° North  Level Estimated
01:06PM 40.2767 -74.8135 21° North  Level Estimated